NCAR-RAP Real-Time Weather Data

Output produced by METARs form (23 June 2018  19:36 UTC)
found at http://weather.rap.ucar.edu/surface/
 
ROMY 231100Z 19011KT 9999 FEW010 BKN/// 28/26 Q1010
ROMY 231000Z 20012KT 9999 FEW010 SCT/// 28/26 Q1010
ROMY 230900Z 20015KT 9999 SCT010 BKN/// 29/26 Q1009
ROMY 230800Z 21014KT 9999 SCT011 SCT/// 29/26 Q1009
ROMY 230700Z 21016KT 9999 FEW011 BKN017 30/26 Q1009
ROMY 230600Z 21019KT 9999 SCT011 BKN019 30/26 Q1009
ROMY 230500Z 22017KT 9999 SCT012 BKN/// 31/27 Q1009
ROMY 230400Z 21017KT 9999 BKN010 BKN017 30/26 Q1009
ROMY 230300Z 21017KT 9999 SCT011 BKN015 BKN/// 30/27 Q1009
ROMY 230200Z 19018KT 9999 SCT011 BKN/// 30/26 Q1009
ROMY 230100Z 19017KT 9999 FEW010 SCT015 BKN/// 30/26 Q1009
ROMY 230000Z 20017KT 9999 FEW009 BKN012 BKN/// 29/26 Q1009
ROMY 222300Z 19018KT 9999 FEW014 BKN/// 29/26 Q1009
ROMY 222200Z 19014KT 9999 FEW010 SCT/// 28/26 Q1009
ROMY 222130Z 20013KT 9999 FEW010 SCT/// 27/26 Q1009
ROMY 221100Z 21013KT 9999 FEW007 SCT009 BKN/// 28/26 Q1009
ROMY 221000Z 22014KT 9999 FEW008 BKN010 28/26 Q1008
ROMY 220900Z 20014KT 9999 FEW009 BKN010 29/26 Q1007
ROMY 220800Z 21016KT 9999 FEW008 BKN010 29/26 Q1007
ROMY 220700Z 21017KT 9999 BKN010 29/26 Q1007
ROMY 220600Z 20017KT 9999 BKN010 30/26 Q1007
ROMY 220500Z 20016KT 9999 BKN010 31/27 Q1007
ROMY 220400Z 19015KT 9999 BKN010 30/26 Q1007
ROMY 220300Z 19015KT 9999 FEW012 SCT016 30/26 Q1008
ROMY 220200Z 20014KT 9999 SCT010 30/26 Q1008
ROMY 220100Z 20015KT 9999 SCT010 BKN/// 29/26 Q1009
ROMY 220000Z 19015KT 9999 FEW008 SCT013 BKN/// 29/26 Q1009
ROMY 212300Z 19012KT 9999 FEW007 SCT009 BKN/// 28/26 Q1009
ROMY 212200Z 20009KT 9999 FEW008 SCT010 BKN/// 28/26 Q1008
ROMY 212130Z 20010KT 9999 FEW009 BKN010 BKN027 27/26 Q1008
ROMY 211100Z 18009KT 9999 FEW008 SCT011 BKN017 28/26 Q1007
ROMY 211000Z 19009KT 9000 SCT008 BKN/// 28/26 Q1007
ROMY 210900Z 19012KT 9999 FEW008 SCT010 29/26 Q1007
ROMY 210800Z 21012KT 9999 BKN010 BKN015 30/26 Q1006